Savannah River Plant, South Carolina
Current Conditions -  °F | °C
As of 4:35 PM on Monday 22 Dec 2014 (Local Time) from KBNL Reporting Station
Overcast Overcast  
Wind Chill: 43°   Ceiling: 400
Heat Index: 46°   Visibility: NA
Dew Point: 46°   Wind: 7mph
Humidity: 100%   Direction: 70°ENE
Pressure: 29.99"   Gusts: NA
Location:  33.2653°N, 81.6553°W
Report Text: KBNL 222135Z AUTO 07006KT OVC004 08/08 A2999 RMK AO2 LTG DSNT E AND SE
Loading
Personal Weather Stations






























Interactive Weather Map New forecast layout! Learn more

10-Day Weather Forecast

Advertisements
Track Severe Weather on mobile